• Join FlightAware (Why Join?)
  • Login
  • US Flag 
10:26AM EST


 

Airport Tracker/Info


-or-


 

Live Flight TrackerFlight Track Log ✈ N388T ✈ 26-Apr-2013 ✈ KAID - KVPZ

Flight Track Log - Related Links

Times and Time Zones

All times are in EDT time to prevent confusion due to time zone crossing. See the N388T flight status page for this flight to view local times or setup timezone preferences in your user account.

Time Position Orientation Groundspeed Altitude Reporting Facility
EDT Latitude Longitude Course Direction KTS MPH feet Rate Location/Type
06:11PM 40.1333 -85.6167 323° Northwest 111 128 2,900  Level Indianapolis TRACON
06:12PM 40.1500 -85.6333 323° Northwest 110 127 3,100 360 Climbing Indianapolis TRACON
06:13PM 40.1717 -85.6575 320° Northwest 106 122 3,500 420 Climbing Indianapolis Center
06:14PM 40.1928 -85.6814 319° Northwest 104 120 4,000 480 Climbing Chicago Center
06:15PM 40.2139 -85.7089 315° West 105 121 4,500 240 Climbing Chicago Center
06:16PM 40.2372 -85.7350 319° Northwest 106 122 4,500  Level Chicago Center
06:17PM 40.2653 -85.7653 321° Northwest 117 135 4,500  Level Chicago Center
06:18PM 40.2908 -85.7972 316° Northwest 130 150 4,500  Level Chicago Center
06:19PM 40.3192 -85.8286 320° Northwest 130 150 4,500  Level Chicago Center
06:20PM 40.3456 -85.8597 318° Northwest 129 148 4,500  Level Chicago Center
06:20PM 40.3536 -85.8647 335° Northwest 130 150 4,500  Level Chicago Center
06:21PM 40.3758 -85.8886 321° Northwest 130 150 4,500 60 Level Chicago Center
06:21PM 40.3817 -85.8953 319° Northwest 131 151 4,600  Climbing Chicago Center
06:22PM 40.4022 -85.9172 321° Northwest 130 150 4,500 -120 Descending Chicago Center
06:22PM 40.4106 -85.9236 330° Northwest 130 150 4,500 60 Level Chicago Center
06:23PM 40.4303 -85.9489 316° Northwest 127 146 4,600 60 Climbing Chicago Center
06:23PM 40.4367 -85.9539 329° Northwest 126 145 4,600 -120 Level Chicago Center
06:24PM 40.4586 -85.9803 318° Northwest 131 151 4,500  Descending Chicago Center
06:24PM 40.4650 -85.9850 331° Northwest 129 148 4,600  Climbing Chicago Center
06:25PM 40.4869 -86.0119 317° Northwest 128 147 4,500  Descending Chicago Center
06:25PM 40.4969 -86.0208 326° Northwest 129 148 4,600 60 Climbing Chicago Center
06:26PM 40.5131 -86.0406 317° Northwest 129 148 4,600  Level Chicago Center
06:26PM 40.5253 -86.0514 326° Northwest 130 150 4,600 -120 Level Chicago Center
06:27PM 40.5456 -86.0722 322° Northwest 131 151 4,500 -120 Descending Chicago Center
06:27PM 40.5544 -86.0819 320° Northwest 131 151 4,500 60 Level Chicago Center
06:28PM 40.5758 -86.1069 318° Northwest 133 153 4,600 60 Climbing Chicago Center
06:28PM 40.5836 -86.1125 332° Northwest 132 152 4,600  Level Chicago Center
06:29PM 40.6019 -86.1356 316° Northwest 133 153 4,600  Level Chicago Center
06:29PM 40.6128 -86.1444 328° Northwest 135 155 4,600  Level Chicago Center
06:30PM 40.6344 -86.1647 325° Northwest 134 154 4,600  Level Chicago Center
06:30PM 40.6433 -86.1717 329° Northwest 133 153 4,600 -120 Level Chicago Center
06:31PM 40.6647 -86.1939 322° Northwest 135 155 4,500 -120 Descending Chicago Center
06:31PM 40.6783 -86.2081 322° Northwest 135 155 4,500  Level Chicago Center
06:32PM 40.6950 -86.2283 317° Northwest 133 153 4,500  Level Chicago Center
06:32PM 40.7061 -86.2381 326° Northwest 133 153 4,500  Level Chicago Center
06:33PM 40.7231 -86.2575 319° Northwest 133 153 4,500 60 Level Chicago Center
06:33PM 40.7356 -86.2700 323° Northwest 135 155 4,600 60 Climbing Chicago Center
06:34PM 40.7514 -86.2892 317° Northwest 132 152 4,600  Level Chicago Center
06:34PM 40.7639 -86.3006 325° Northwest 133 153 4,600  Level Chicago Center
06:35PM 40.7797 -86.3183 320° Northwest 133 153 4,600  Level Chicago Center
06:35PM 40.7925 -86.3322 321° Northwest 134 154 4,600 -120 Level Chicago Center
06:36PM 40.8097 -86.3531 318° Northwest 134 154 4,500 -120 Descending Chicago Center
06:36PM 40.8200 -86.3619 327° Northwest 132 152 4,500 -120 Level Chicago Center
06:37PM 40.8378 -86.3850 316° Northwest 139 160 4,400  Descending Chicago Center
06:38PM 40.8542 -86.4014 323° Northwest 133 153 4,500 60 Climbing Chicago Center
06:38PM 40.8681 -86.4169 320° Northwest 136 157 4,500 -120 Level Chicago Center
06:39PM 40.8850 -86.4319 326° Northwest 135 155 4,400  Descending Chicago Center
06:39PM 40.8983 -86.4461 321° Northwest 135 155 4,500 60 Climbing Chicago Center
06:40PM 40.9142 -86.4614 324° Northwest 135 155 4,500  Level Chicago Center
06:40PM 40.9306 -86.4811 318° Northwest 134 154 4,500  Level Chicago Center
06:41PM 40.9425 -86.4953 318° Northwest 135 155 4,500  Level Chicago Center
06:42PM 40.9731 -86.5281 321° Northwest 138 159 4,500  Level Chicago Center
06:43PM 41.0017 -86.5619 318° Northwest 137 158 4,500  Level Chicago Center
06:44PM 41.0378 -86.5992 322° Northwest 136 157 4,500  Level Chicago Center
06:45PM 41.0669 -86.6325 319° Northwest 138 159 4,500  Level Chicago Center
06:46PM 41.0978 -86.6617 325° Northwest 136 157 4,500  Level Chicago Center
06:47PM 41.1286 -86.6925 323° Northwest 138 159 4,600  Climbing Chicago Center
06:48PM 41.1617 -86.7261 323° Northwest 140 161 4,500 -120 Descending Chicago Center
06:49PM 41.1961 -86.7558 327° Northwest 146 168 4,400 -60 Descending Chicago Center
06:50PM 41.2333 -86.7886 326° Northwest 137 158 4,400 -180 Level Chicago Center
06:51PM 41.2675 -86.8142 331° Northwest 139 160 4,100 -300 Descending Chicago Center
06:52PM 41.2972 -86.8381 329° Northwest 132 152 3,900 -240 Descending Chicago Center
06:53PM 41.3261 -86.8644 326° Northwest 128 147 3,700 -240 Descending Chicago Center